Time;durP1;ratioP1;P1;durP2;ratioP2;P2;SDS_P1;SDS_P2;PMS_P1;PMS_P2;Temp;Humidity;BMP_temperature;BMP_pressure;BME280_temperature;BME280_humidity;BME280_pressure;Samples;Min_cycle;Max_cycle;Signal;HPM_P1;HPM_P2
2023/09/01 00:01:32;;;;;;;15.70;7.30;;;14.90;99.90;;;;;;5010752;28;20128;-54
2023/09/01 00:03:57;;;;;;;11.02;7.82;;;14.90;99.90;;;;;;5010928;28;20092;-50
2023/09/01 00:06:23;;;;;;;7.38;6.70;;;14.90;99.90;;;;;;5010823;28;20054;-47
2023/09/01 00:08:48;;;;;;;9.05;7.55;;;14.80;99.90;;;;;;5010917;28;20030;-49
2023/09/01 00:11:15;;;;;;;10.15;6.32;;;14.80;99.90;;;;;;5010412;28;20018;-47
2023/09/01 00:13:41;;;;;;;6.78;6.13;;;14.90;99.90;;;;;;5010792;28;20245;-49
2023/09/01 00:16:07;;;;;;;9.88;5.90;;;14.80;99.90;;;;;;5010855;28;20502;-47
2023/09/01 00:18:33;;;;;;;6.03;5.43;;;14.90;99.90;;;;;;5010352;28;20056;-51
2023/09/01 00:21:03;;;;;;;6.15;4.68;;;14.80;99.90;;;;;;4994449;28;20493;-49
2023/09/01 00:23:29;;;;;;;7.72;5.38;;;14.80;99.90;;;;;;5010833;28;20033;-52
2023/09/01 00:25:56;;;;;;;6.03;4.80;;;14.90;99.90;;;;;;5034499;23;20022;-45
2023/09/01 00:28:23;;;;;;;9.45;4.53;;;14.80;99.90;;;;;;4975766;28;20210;-51
2023/09/01 00:30:57;;;;;;;7.72;5.20;;;14.80;99.90;;;;;;4993910;28;20217;-44
2023/09/01 00:33:28;;;;;;;8.65;5.28;;;14.80;99.90;;;;;;4993939;28;20026;-46
2023/09/01 00:35:55;;;;;;;49.60;29.23;;;14.70;99.90;;;;;;4994873;28;20033;-45
2023/09/01 00:38:21;;;;;;;8.70;5.45;;;14.70;99.90;;;;;;5013618;28;20409;-45
2023/09/01 00:40:48;;;;;;;5.55;4.97;;;14.70;99.90;;;;;;5013409;28;20037;-47
2023/09/01 00:43:14;;;;;;;4.95;4.43;;;14.70;99.90;;;;;;5031346;28;20121;-50
2023/09/01 00:45:40;;;;;;;5.85;4.53;;;14.70;99.90;;;;;;5013969;28;20137;-47
2023/09/01 00:48:07;;;;;;;7.13;4.80;;;14.70;99.90;;;;;;5013699;28;20018;-46
2023/09/01 00:50:36;;;;;;;9.00;4.90;;;14.80;99.90;;;;;;5013577;28;20100;-46
2023/09/01 00:53:02;;;;;;;8.38;4.82;;;14.80;99.90;;;;;;5013553;28;20471;-44
2023/09/01 00:55:29;;;;;;;6.65;4.75;;;14.80;99.90;;;;;;5013935;28;20021;-45
2023/09/01 00:57:55;;;;;;;5.32;4.60;;;14.80;99.90;;;;;;4981052;28;20120;-44
2023/09/01 01:00:20;;;;;;;8.15;4.88;;;14.70;99.90;;;;;;5012879;28;20464;-48
2023/09/01 01:02:47;;;;;;;7.93;4.38;;;14.80;99.90;;;;;;4996851;28;20026;-45
2023/09/01 01:05:15;;;;;;;6.47;4.55;;;14.80;99.90;;;;;;5013371;28;20030;-45
2023/09/01 01:08:02;;;;;;;7.18;4.63;;;14.80;99.90;;;;;;5030968;28;20041;-48
2023/09/01 01:10:48;;;;;;;6.97;4.28;;;14.80;99.90;;;;;;5030992;28;20022;-49
2023/09/01 01:13:16;;;;;;;5.95;4.47;;;14.80;99.90;;;;;;4999216;28;20396;-48
2023/09/01 01:15:43;;;;;;;6.38;4.75;;;14.70;99.90;;;;;;4997007;28;20052;-47
2023/09/01 01:18:12;;;;;;;11.10;4.90;;;14.80;99.90;;;;;;4997032;28;20082;-45
2023/09/01 01:20:39;;;;;;;5.53;4.35;;;14.70;99.90;;;;;;5013222;28;20018;-48
2023/09/01 01:23:20;;;;;;;7.05;4.72;;;14.70;99.90;;;;;;5013116;28;20022;-48
2023/09/01 01:25:52;;;;;;;7.93;4.75;;;14.70;99.90;;;;;;5030969;28;20029;-48
2023/09/01 01:28:19;;;;;;;6.78;4.88;;;14.70;99.90;;;;;;5013110;28;20030;-44
2023/09/01 01:30:47;;;;;;;10.63;5.22;;;14.70;99.90;;;;;;5000243;28;20489;-49
2023/09/01 01:33:32;;;;;;;7.35;5.25;;;14.70;99.90;;;;;;5034864;28;20030;-46
2023/09/01 01:36:10;;;;;;;;;;;14.70;99.90;;;;;;5016925;28;20026;-47
2023/09/01 01:38:39;;;;;;;8.52;4.82;;;14.70;99.90;;;;;;5016638;28;19904;-45
2023/09/01 01:41:13;;;;;;;6.65;5.32;;;14.70;99.90;;;;;;5016382;28;20025;-45
2023/09/01 01:43:42;;;;;;;8.15;5.78;;;14.70;99.90;;;;;;4984382;28;20067;-48
2023/09/01 01:46:08;;;;;;;7.10;5.05;;;14.70;99.90;;;;;;5000004;28;20033;-50
2023/09/01 01:48:37;;;;;;;6.20;5.18;;;14.70;99.90;;;;;;5016523;28;20133;-45
2023/09/01 01:51:05;;;;;;;7.28;5.18;;;14.70;99.90;;;;;;4983404;28;20053;-44
2023/09/01 01:53:34;;;;;;;5.75;4.82;;;14.70;99.90;;;;;;5016284;28;20500;-46
2023/09/01 01:56:01;;;;;;;10.43;6.38;;;14.70;99.90;;;;;;5016895;28;20033;-49
2023/09/01 01:58:27;;;;;;;8.05;5.03;;;14.70;99.90;;;;;;4999906;28;20029;-46
2023/09/01 02:00:52;;;;;;;7.65;5.55;;;14.70;99.90;;;;;;5016138;28;20033;-46
2023/09/01 02:03:18;;;;;;;10.15;5.15;;;14.70;99.90;;;;;;4999717;28;20076;-44
2023/09/01 02:05:43;;;;;;;7.70;4.80;;;14.70;99.90;;;;;;5033951;28;20473;-47
2023/09/01 02:08:09;;;;;;;8.85;6.63;;;14.80;99.90;;;;;;5015764;28;20071;-49
2023/09/01 02:10:34;;;;;;;7.97;5.43;;;14.80;99.90;;;;;;5016141;28;20389;-46
2023/09/01 02:13:01;;;;;;;9.07;6.00;;;14.80;99.90;;;;;;4999530;28;20021;-44
2023/09/01 02:15:27;;;;;;;6.35;5.07;;;14.80;99.90;;;;;;5034058;28;20112;-46
2023/09/01 02:17:52;;;;;;;5.97;5.38;;;14.80;99.90;;;;;;5016215;28;20540;-45
2023/09/01 02:20:18;;;;;;;7.57;5.00;;;14.80;99.90;;;;;;5033522;28;20030;-44
2023/09/01 02:22:48;;;;;;;5.45;4.75;;;14.80;99.90;;;;;;5033308;28;20063;-45
2023/09/01 02:25:14;;;;;;;5.05;4.65;;;14.80;99.90;;;;;;5015887;28;20025;-44
2023/09/01 02:27:41;;;;;;;8.82;5.82;;;14.80;99.90;;;;;;5033454;28;20038;-43
2023/09/01 02:30:08;;;;;;;6.15;4.93;;;14.90;99.90;;;;;;5033475;28;20029;-48
2023/09/01 02:32:34;;;;;;;9.25;5.57;;;14.90;99.90;;;;;;5015940;28;20053;-48
2023/09/01 02:35:00;;;;;;;5.70;5.03;;;14.90;99.90;;;;;;5033423;28;20045;-46
2023/09/01 02:37:26;;;;;;;4.70;4.22;;;14.80;99.90;;;;;;5016006;28;20033;-47
2023/09/01 02:39:52;;;;;;;6.22;4.70;;;14.90;99.90;;;;;;5015149;28;20034;-45
2023/09/01 02:42:17;;;;;;;5.85;4.80;;;14.80;99.90;;;;;;4999100;28;20535;-45
2023/09/01 02:44:43;;;;;;;7.68;4.47;;;14.90;99.90;;;;;;5015390;28;20030;-47
2023/09/01 02:47:08;;;;;;;5.43;4.88;;;14.90;99.90;;;;;;5032747;28;20029;-48
2023/09/01 02:49:34;;;;;;;4.97;4.57;;;14.80;99.90;;;;;;4998878;28;20493;-47
2023/09/01 02:51:59;;;;;;;4.95;4.45;;;14.90;99.90;;;;;;5014899;28;20025;-48
2023/09/01 02:54:25;;;;;;;6.05;5.55;;;14.90;99.90;;;;;;5015470;28;20128;-44
2023/09/01 02:56:50;;;;;;;6.85;5.05;;;14.90;99.90;;;;;;4998972;28;20409;-48
2023/09/01 02:59:16;;;;;;;6.57;5.20;;;14.90;99.90;;;;;;5015273;28;20603;-47
2023/09/01 03:01:41;;;;;;;5.68;4.55;;;14.70;99.90;;;;;;5032913;28;20092;-49
2023/09/01 03:04:07;;;;;;;5.95;4.75;;;15.00;99.90;;;;;;5032818;28;20068;-46
2023/09/01 03:06:36;;;;;;;4.88;4.43;;;15.00;99.90;;;;;;5014946;28;20113;-45
2023/09/01 03:09:02;;;;;;;6.88;4.13;;;15.00;99.90;;;;;;5032671;28;20048;-45
2023/09/01 03:11:28;;;;;;;6.15;4.28;;;15.10;99.90;;;;;;5014982;28;20091;-47
2023/09/01 03:13:54;;;;;;;5.55;4.10;;;15.10;99.90;;;;;;5015014;28;20440;-50
2023/09/01 03:16:19;;;;;;;4.60;4.25;;;15.10;99.90;;;;;;5015097;28;20104;-45
2023/09/01 03:18:45;;;;;;;5.05;4.43;;;15.10;99.90;;;;;;5015020;28;20030;-46
2023/09/01 03:21:12;;;;;;;4.50;4.10;;;15.10;99.90;;;;;;5014130;28;20161;-46
2023/09/01 03:23:37;;;;;;;4.95;3.75;;;15.10;99.90;;;;;;5032767;28;20035;-48
2023/09/01 03:26:06;;;;;;;5.28;4.20;;;15.10;99.90;;;;;;4998301;28;20026;-46
2023/09/01 03:28:32;;;;;;;4.28;3.88;;;15.10;99.90;;;;;;5032497;28;20037;-46
2023/09/01 03:30:58;;;;;;;4.90;4.43;;;15.10;99.90;;;;;;5014716;28;20079;-46
2023/09/01 03:33:24;;;;;;;7.07;3.83;;;15.10;99.90;;;;;;4998163;28;20022;-44
2023/09/01 03:35:49;;;;;;;4.35;4.05;;;15.10;99.90;;;;;;5014488;28;20070;-45
2023/09/01 03:38:15;;;;;;;6.57;3.35;;;15.10;99.90;;;;;;5014482;28;20072;-42
2023/09/01 03:40:41;;;;;;;3.80;3.50;;;15.10;99.90;;;;;;5014383;28;20444;-45
2023/09/01 03:43:09;;;;;;;4.95;4.55;;;15.10;99.90;;;;;;5032272;28;20028;-48
2023/09/01 03:45:35;;;;;;;4.25;3.83;;;15.20;99.90;;;;;;5014338;28;20025;-45
2023/09/01 03:48:01;;;;;;;6.20;4.53;;;15.10;99.90;;;;;;5014164;28;20112;-48
2023/09/01 03:50:26;;;;;;;5.05;4.65;;;15.10;99.90;;;;;;5013988;28;20079;-45
2023/09/01 03:52:52;;;;;;;4.95;4.47;;;15.10;99.90;;;;;;5013450;28;20029;-49
2023/09/01 03:55:18;;;;;;;7.68;5.40;;;15.20;99.90;;;;;;5031522;28;20025;-47
2023/09/01 03:57:44;;;;;;;7.20;5.53;;;15.20;99.90;;;;;;5031810;28;20104;-45
2023/09/01 04:00:11;;;;;;;6.85;6.25;;;15.30;99.90;;;;;;5014147;28;20025;-47
2023/09/01 04:02:37;;;;;;;7.22;6.53;;;15.30;99.90;;;;;;5013845;28;20092;-45
2023/09/01 04:05:03;;;;;;;7.45;6.70;;;15.30;99.90;;;;;;5031755;28;20053;-47
2023/09/01 04:07:29;;;;;;;6.82;6.20;;;15.30;99.90;;;;;;5013913;28;20041;-45
2023/09/01 04:09:56;;;;;;;9.02;7.10;;;15.30;99.90;;;;;;5014382;28;20558;-50
2023/09/01 04:12:21;;;;;;;8.85;7.50;;;15.30;99.90;;;;;;5013828;28;20031;-43
2023/09/01 04:14:47;;;;;;;9.82;8.52;;;15.30;99.90;;;;;;5013770;28;20017;-47
2023/09/01 04:17:12;;;;;;;9.20;8.10;;;15.30;99.90;;;;;;5031925;28;20037;-47
2023/09/01 04:19:38;;;;;;;9.38;8.40;;;15.20;99.90;;;;;;5013901;28;20047;-45
2023/09/01 04:22:04;;;;;;;9.98;8.85;;;15.20;99.90;;;;;;5013632;28;20071;-45
2023/09/01 04:24:29;;;;;;;11.23;8.10;;;15.30;99.90;;;;;;5013710;28;20389;-47
2023/09/01 04:26:55;;;;;;;11.15;9.98;;;15.30;99.90;;;;;;5013438;28;20115;-50
2023/09/01 04:29:20;;;;;;;10.63;9.52;;;15.40;99.90;;;;;;5013490;28;20022;-45
2023/09/01 04:31:48;;;;;;;12.82;10.60;;;15.40;99.90;;;;;;5030919;28;20030;-45
2023/09/01 04:34:14;;;;;;;14.93;11.57;;;15.40;99.90;;;;;;5013738;28;20029;-45
2023/09/01 04:36:39;;;;;;;12.75;10.38;;;15.40;99.90;;;;;;5031287;28;20029;-50
2023/09/01 04:39:05;;;;;;;13.70;11.20;;;15.40;99.90;;;;;;5013616;28;20025;-45
2023/09/01 04:41:32;;;;;;;16.95;11.68;;;15.30;99.90;;;;;;5031003;28;20207;-50
2023/09/01 04:43:58;;;;;;;13.05;11.65;;;15.40;99.90;;;;;;5031400;28;20033;-45
2023/09/01 04:46:23;;;;;;;14.55;11.43;;;15.40;99.90;;;;;;4997126;28;20108;-45
2023/09/01 04:48:49;;;;;;;15.45;12.48;;;15.40;99.90;;;;;;5013429;28;20124;-45
2023/09/01 04:51:15;;;;;;;15.00;13.45;;;15.50;99.90;;;;;;5030689;28;20025;-43
2023/09/01 04:53:41;;;;;;;18.23;13.15;;;15.50;99.90;;;;;;5013845;28;20079;-47
2023/09/01 04:56:06;;;;;;;17.95;13.45;;;15.50;99.90;;;;;;5031272;28;20108;-51
2023/09/01 04:58:32;;;;;;;22.20;13.77;;;15.50;99.90;;;;;;5013386;28;20124;-50
2023/09/01 05:00:57;;;;;;;22.20;15.63;;;15.50;99.90;;;;;;4996865;28;20029;-44
2023/09/01 05:03:23;;;;;;;17.58;13.48;;;15.50;99.90;;;;;;5014960;28;20025;-46
2023/09/01 05:05:49;;;;;;;21.17;15.13;;;15.50;99.90;;;;;;5034782;28;20030;-45
2023/09/01 05:08:16;;;;;;;19.92;15.27;;;15.50;99.90;;;;;;5017248;28;20504;-45
2023/09/01 05:10:41;;;;;;;21.63;16.05;;;15.50;99.90;;;;;;5017176;28;20032;-45
2023/09/01 05:13:07;;;;;;;19.33;15.50;;;15.60;99.90;;;;;;5034776;28;20477;-46
2023/09/01 05:15:33;;;;;;;21.70;15.77;;;15.60;99.90;;;;;;5017132;28;20033;-45
2023/09/01 05:17:58;;;;;;;20.60;16.40;;;15.60;99.90;;;;;;5017412;28;20481;-45
2023/09/01 05:20:24;;;;;;;22.45;15.93;;;15.50;99.90;;;;;;5034757;28;20096;-45
2023/09/01 05:22:49;;;;;;;25.27;16.30;;;15.60;99.90;;;;;;5016870;28;20481;-46
2023/09/01 05:25:15;;;;;;;19.02;16.00;;;15.60;99.90;;;;;;5017157;28;20021;-46
2023/09/01 05:27:41;;;;;;;24.52;17.15;;;15.70;99.90;;;;;;5000222;28;20033;-45
2023/09/01 05:30:07;;;;;;;28.35;17.67;;;15.60;99.90;;;;;;5016795;28;20453;-45
2023/09/01 05:32:34;;;;;;;20.33;15.27;;;15.60;99.90;;;;;;5000589;28;20477;-45
2023/09/01 05:34:59;;;;;;;21.45;16.80;;;15.60;99.90;;;;;;5034618;28;20040;-45
2023/09/01 05:37:25;;;;;;;25.30;15.27;;;15.70;99.90;;;;;;5034506;28;20389;-46
2023/09/01 05:39:50;;;;;;;23.45;17.25;;;15.70;99.90;;;;;;5016382;28;20026;-46
2023/09/01 05:42:16;;;;;;;18.38;16.00;;;15.70;99.90;;;;;;5016515;28;20026;-44
2023/09/01 05:44:41;;;;;;;20.30;15.52;;;15.70;99.90;;;;;;5034377;28;20542;-46
2023/09/01 05:47:07;;;;;;;20.50;15.75;;;15.80;99.90;;;;;;5016508;28;20029;-46
2023/09/01 05:49:34;;;;;;;24.70;16.10;;;15.80;99.90;;;;;;5016581;28;20017;-45
2023/09/01 05:52:03;;;;;;;21.40;16.77;;;15.70;99.90;;;;;;5033752;28;20168;-45
2023/09/01 05:54:28;;;;;;;20.63;15.45;;;15.80;99.90;;;;;;5034060;28;20022;-47
2023/09/01 05:56:54;;;;;;;15.90;14.23;;;15.80;99.90;;;;;;5034149;28;20032;-45
2023/09/01 05:59:20;;;;;;;18.60;14.82;;;15.80;99.90;;;;;;5016328;28;20061;-47
2023/09/01 06:01:46;;;;;;;17.77;14.48;;;15.70;99.90;;;;;;5033924;28;20026;-46
2023/09/01 06:04:12;;;;;;;17.20;14.55;;;15.70;99.90;;;;;;5016310;28;20087;-45
2023/09/01 06:06:38;;;;;;;19.83;13.68;;;15.70;99.90;;;;;;5016169;28;20065;-45
2023/09/01 06:09:04;;;;;;;14.52;13.00;;;15.70;99.90;;;;;;5015976;28;20099;-46
2023/09/01 06:11:30;;;;;;;16.15;14.20;;;15.70;99.90;;;;;;5016413;28;20028;-45
2023/09/01 06:13:56;;;;;;;19.35;14.15;;;15.80;99.90;;;;;;4999648;28;20049;-46
2023/09/01 06:16:22;;;;;;;14.85;13.27;;;15.80;99.90;;;;;;4998799;28;20111;-47
2023/09/01 06:18:47;;;;;;;16.48;13.98;;;15.80;99.90;;;;;;5016179;28;20481;-48
2023/09/01 06:21:16;;;;;;;14.93;13.32;;;15.80;99.90;;;;;;4999273;28;20508;-45
2023/09/01 06:23:45;;;;;;;15.88;13.68;;;15.90;99.90;;;;;;5033616;28;20504;-46
2023/09/01 06:26:11;;;;;;;15.30;13.70;;;15.90;99.90;;;;;;5015473;28;20030;-46
2023/09/01 06:28:39;;;;;;;14.25;12.85;;;16.00;99.90;;;;;;4996669;23;20039;-48
2023/09/01 06:31:04;;;;;;;16.23;12.55;;;15.90;99.90;;;;;;4972693;28;20019;-47
2023/09/01 06:33:30;;;;;;;15.57;11.82;;;15.90;99.90;;;;;;4974974;28;20380;-52
2023/09/01 06:35:55;;;;;;;14.15;11.80;;;16.00;99.90;;;;;;4957585;28;20487;-49
2023/09/01 06:38:21;;;;;;;12.80;11.40;;;15.90;99.90;;;;;;4989007;28;20422;-47
2023/09/01 06:40:46;;;;;;;12.52;11.32;;;16.00;99.90;;;;;;5009250;28;20453;-47
2023/09/01 06:43:12;;;;;;;10.73;9.52;;;16.10;99.90;;;;;;4994131;28;20096;-51
2023/09/01 06:45:38;;;;;;;10.63;9.63;;;16.10;99.90;;;;;;4993074;28;20023;-46
2023/09/01 06:48:04;;;;;;;11.00;9.82;;;16.10;99.90;;;;;;4994828;28;20038;-46
2023/09/01 06:50:29;;;;;;;10.88;9.55;;;16.20;99.90;;;;;;4993067;28;20027;-48
2023/09/01 06:52:55;;;;;;;9.50;8.55;;;16.20;99.90;;;;;;4992570;28;20054;-50
2023/09/01 06:55:21;;;;;;;12.05;9.15;;;16.30;99.90;;;;;;4992738;28;20117;-53
2023/09/01 06:57:47;;;;;;;12.13;7.70;;;16.30;99.90;;;;;;5009042;28;20045;-48
2023/09/01 07:00:14;;;;;;;10.40;8.05;;;16.40;99.90;;;;;;4992403;28;20023;-50
2023/09/01 07:02:40;;;;;;;8.75;7.85;;;16.40;99.90;;;;;;4992430;28;20108;-52
2023/09/01 07:05:06;;;;;;;9.20;8.30;;;16.60;99.90;;;;;;4992552;28;20470;-45
2023/09/01 07:07:32;;;;;;;10.75;8.88;;;16.70;99.90;;;;;;4992388;28;20031;-47
2023/09/01 07:09:57;;;;;;;9.68;8.68;;;16.80;99.90;;;;;;4986817;28;20026;-51
2023/09/01 07:12:23;;;;;;;10.40;8.65;;;16.80;99.90;;;;;;4989026;28;20019;-47
2023/09/01 07:14:48;;;;;;;9.27;8.38;;;16.80;99.90;;;;;;4996745;28;20019;-49
2023/09/01 07:17:20;;;;;;;9.00;8.13;;;16.80;99.90;;;;;;5008517;28;20022;-50
2023/09/01 07:19:45;;;;;;;10.80;9.55;;;16.80;99.90;;;;;;5008439;28;20389;-49
2023/09/01 07:22:11;;;;;;;12.38;9.90;;;16.80;99.90;;;;;;5007685;28;20132;-47
2023/09/01 07:24:36;;;;;;;12.05;10.02;;;16.80;99.90;;;;;;5008307;28;20045;-47
2023/09/01 07:27:03;;;;;;;15.77;10.23;;;16.80;99.90;;;;;;5007297;28;20030;-49
2023/09/01 07:29:29;;;;;;;16.48;11.32;;;16.80;99.90;;;;;;4991208;28;20499;-48
2023/09/01 07:31:54;;;;;;;12.35;10.98;;;16.80;99.90;;;;;;4990452;28;20113;-47
2023/09/01 07:34:20;;;;;;;14.20;10.88;;;16.80;99.90;;;;;;4961109;28;20015;-50
2023/09/01 07:36:45;;;;;;;15.52;11.60;;;16.80;99.90;;;;;;5008153;28;20084;-47
2023/09/01 07:39:11;;;;;;;13.15;11.85;;;16.70;99.90;;;;;;4993137;28;20038;-48
2023/09/01 07:41:36;;;;;;;12.82;11.55;;;16.70;99.90;;;;;;5007831;28;20075;-51
2023/09/01 07:44:02;;;;;;;16.77;12.65;;;16.70;99.90;;;;;;5007647;28;20092;-46
2023/09/01 07:46:33;;;;;;;18.27;13.27;;;16.70;99.90;;;;;;4992369;28;20037;-46
2023/09/01 07:48:59;;;;;;;15.68;14.07;;;16.70;99.90;;;;;;5008021;28;20027;-50
2023/09/01 07:51:24;;;;;;;19.15;14.70;;;16.80;99.90;;;;;;5007879;28;20032;-47
2023/09/01 07:53:50;;;;;;;15.60;13.32;;;16.80;99.90;;;;;;5007879;28;20054;-47
2023/09/01 07:56:15;;;;;;;15.20;12.30;;;16.90;99.90;;;;;;5008803;28;20026;-56
2023/09/01 07:58:41;;;;;;;13.90;12.40;;;16.90;99.90;;;;;;4991970;28;20026;-50
2023/09/01 08:01:06;;;;;;;17.98;12.40;;;17.00;99.90;;;;;;4971639;28;20031;-47
2023/09/01 08:03:32;;;;;;;12.73;11.10;;;17.10;99.90;;;;;;4955790;28;20053;-44
2023/09/01 08:05:59;;;;;;;17.38;12.00;;;17.20;99.90;;;;;;4971634;28;20035;-51
2023/09/01 08:08:24;;;;;;;16.17;11.52;;;17.20;99.90;;;;;;4971915;28;20050;-47
2023/09/01 08:10:51;;;;;;;12.32;10.95;;;17.30;99.90;;;;;;4971784;28;20022;-48
2023/09/01 08:13:17;;;;;;;21.95;11.07;;;17.30;99.90;;;;;;4971725;28;20115;-48
2023/09/01 08:15:43;;;;;;;18.85;11.60;;;17.40;99.90;;;;;;4988214;28;20497;-48
2023/09/01 08:18:08;;;;;;;19.17;10.95;;;17.40;99.90;;;;;;4993012;28;20027;-52
2023/09/01 08:20:34;;;;;;;19.98;10.23;;;17.40;99.90;;;;;;5007498;28;20041;-52
2023/09/01 08:22:59;;;;;;;11.43;9.73;;;17.50;99.90;;;;;;4992494;28;20038;-50
2023/09/01 08:25:25;;;;;;;12.40;9.88;;;17.50;99.90;;;;;;4991333;28;20029;-49
2023/09/01 08:27:50;;;;;;;14.77;9.57;;;17.60;99.90;;;;;;5005773;28;20121;-53
2023/09/01 08:30:16;;;;;;;13.43;10.00;;;17.60;99.90;;;;;;4992493;28;20141;-58
2023/09/01 08:32:42;;;;;;;11.18;9.48;;;17.70;99.90;;;;;;4992307;28;20054;-53
2023/09/01 08:35:08;;;;;;;12.07;9.20;;;17.70;99.90;;;;;;4992612;28;20525;-57
2023/09/01 08:37:34;;;;;;;12.43;8.70;;;17.80;99.90;;;;;;4992119;28;20038;-57
2023/09/01 08:39:59;;;;;;;10.93;8.15;;;17.90;99.90;;;;;;4992375;28;20034;-55
2023/09/01 08:42:26;;;;;;;15.63;8.57;;;17.90;99.90;;;;;;4992163;28;20033;-51
2023/09/01 08:44:52;;;;;;;12.55;6.50;;;18.10;99.90;;;;;;4977230;28;20121;-51
2023/09/01 08:47:23;;;;;;;9.85;7.05;;;18.20;99.90;;;;;;4972911;28;20113;-51
2023/09/01 08:49:53;;;;;;;11.70;6.75;;;18.20;99.90;;;;;;4971469;28;20103;-49
2023/09/01 08:52:19;;;;;;;12.10;6.00;;;18.40;99.90;;;;;;4972662;28;20034;-50
2023/09/01 08:54:46;;;;;;;9.60;5.53;;;18.40;99.90;;;;;;4971484;28;20022;-49
2023/09/01 08:57:12;;;;;;;12.50;6.20;;;18.50;99.90;;;;;;4971397;28;20454;-48
2023/09/01 08:59:37;;;;;;;12.00;5.85;;;18.50;99.90;;;;;;4971300;28;20023;-48
2023/09/01 09:02:07;;;;;;;8.98;5.60;;;18.60;99.90;;;;;;4971725;28;20037;-47
2023/09/01 09:04:33;;;;;;;4.95;4.40;;;18.70;99.90;;;;;;4956118;28;20577;-47
2023/09/01 09:07:14;;;;;;;7.75;4.93;;;18.80;99.90;;;;;;4972654;28;20106;-49
2023/09/01 09:09:54;;;;;;;7.03;4.18;;;18.90;99.90;;;;;;4971381;28;20034;-52
2023/09/01 09:12:22;;;;;;;8.90;4.43;;;18.90;99.90;;;;;;4971236;28;20050;-47
2023/09/01 09:14:52;;;;;;;7.00;4.28;;;19.10;99.90;;;;;;4971221;28;20113;-47
2023/09/01 09:17:22;;;;;;;5.82;3.55;;;19.10;99.90;;;;;;4971250;28;20498;-48
2023/09/01 09:19:52;;;;;;;9.48;4.30;;;19.20;99.90;;;;;;4971264;28;20037;-48
2023/09/01 09:22:18;;;;;;;5.45;3.33;;;19.20;99.90;;;;;;4971033;28;20502;-51
2023/09/01 09:24:43;;;;;;;5.18;3.22;;;19.20;99.90;;;;;;4971153;28;20031;-50
2023/09/01 09:27:17;;;;;;;5.85;3.63;;;19.20;99.90;;;;;;4971377;28;20027;-47
2023/09/01 09:29:44;;;;;;;5.28;3.70;;;19.20;99.90;;;;;;4971011;28;20034;-47
2023/09/01 09:32:23;;;;;;;10.68;6.22;;;19.30;99.90;;;;;;4955132;28;20509;-47
2023/09/01 09:35:13;;;;;;;9.30;4.13;;;19.40;99.90;;;;;;4971068;28;20106;-49
2023/09/01 09:37:41;;;;;;;5.00;3.25;;;19.50;99.90;;;;;;5000720;28;20030;-47
2023/09/01 09:40:13;;;;;;;5.15;3.10;;;19.60;99.90;;;;;;4990027;28;20089;-48
2023/09/01 09:42:41;;;;;;;4.38;2.53;;;19.70;99.90;;;;;;5005962;28;20030;-49
2023/09/01 09:45:20;;;;;;;7.78;2.70;;;19.70;99.90;;;;;;5006447;28;20040;-46
2023/09/01 09:47:47;;;;;;;6.90;2.97;;;19.70;99.90;;;;;;4989826;28;20093;-46
2023/09/01 09:50:13;;;;;;;3.97;2.67;;;19.70;99.90;;;;;;5005451;28;20077;-47
2023/09/01 09:52:39;;;;;;;4.97;3.00;;;19.60;99.90;;;;;;5008727;28;20058;-46
2023/09/01 09:55:10;;;;;;;6.80;3.20;;;19.50;99.90;;;;;;5009570;28;20053;-48
2023/09/01 09:57:38;;;;;;;5.65;2.50;;;19.60;99.90;;;;;;4995442;28;20126;-50
2023/09/01 10:00:10;;;;;;;7.20;2.95;;;19.60;99.90;;;;;;4996433;28;20084;-51
2023/09/01 10:02:42;;;;;;;7.35;3.20;;;19.60;99.90;;;;;;4995359;28;20034;-49
2023/09/01 10:05:11;;;;;;;7.53;2.58;;;19.70;99.90;;;;;;5010214;28;20454;-47
2023/09/01 10:07:36;;;;;;;6.68;2.92;;;19.80;99.90;;;;;;5010205;28;20490;-47
2023/09/01 10:10:03;;;;;;;5.35;2.58;;;19.80;99.90;;;;;;4995110;28;20041;-48
2023/09/01 10:12:29;;;;;;;5.70;2.45;;;19.90;99.90;;;;;;5009979;28;20121;-49
2023/09/01 10:14:55;;;;;;;5.22;2.40;;;19.90;99.90;;;;;;5010367;28;20058;-48
2023/09/01 10:17:25;;;;;;;2.33;2.10;;;19.80;99.90;;;;;;5009915;28;20022;-46
2023/09/01 10:19:53;;;;;;;4.60;2.13;;;20.00;99.90;;;;;;4993713;28;20177;-49
2023/09/01 10:22:19;;;;;;;3.55;1.95;;;19.90;99.90;;;;;;4994649;28;20489;-50
2023/09/01 10:25:20;;;;;;;5.38;2.40;;;20.00;99.90;;;;;;5009868;28;20037;-51
2023/09/01 10:28:04;;;;;;;4.65;2.95;;;20.10;99.90;;;;;;4988457;28;20069;-48
2023/09/01 10:30:33;;;;;;;4.72;2.60;;;20.10;99.90;;;;;;4994775;28;20080;-46
2023/09/01 10:33:22;;;;;;;19.55;11.18;;;20.00;99.90;;;;;;5009471;28;20034;-51
2023/09/01 10:35:50;;;;;;;12.68;7.20;;;19.90;99.90;;;;;;4991179;28;20069;-53
2023/09/01 10:38:18;;;;;;;9.38;3.53;;;20.00;99.90;;;;;;5010193;28;20045;-53
2023/09/01 10:40:49;;;;;;;5.35;2.92;;;20.00;99.90;;;;;;5010220;28;20026;-49
2023/09/01 10:43:38;;;;;;;5.95;2.83;;;20.20;99.90;;;;;;5009772;28;20022;-54
2023/09/01 10:46:12;;;;;;;4.82;2.95;;;20.30;99.90;;;;;;4994982;28;20105;-48
2023/09/01 10:48:53;;;;;;;4.35;2.58;;;20.40;99.90;;;;;;5008848;28;20019;-49
2023/09/01 10:51:20;;;;;;;3.08;2.30;;;20.30;99.90;;;;;;5009010;28;20085;-48
2023/09/01 10:53:45;;;;;;;4.32;2.40;;;20.30;99.90;;;;;;5009076;28;20029;-50
2023/09/01 10:56:12;;;;;;;3.50;2.42;;;20.20;99.90;;;;;;5009205;28;20019;-48
2023/09/01 10:58:44;;;;;;;4.53;2.33;;;20.20;99.90;;;;;;4993869;28;20026;-47
2023/09/01 11:01:36;;;;;;;6.40;3.20;;;20.10;99.90;;;;;;4993701;28;20548;-46
2023/09/01 11:04:14;;;;;;;3.72;2.05;;;20.00;99.90;;;;;;4992856;28;20034;-47
2023/09/01 11:07:03;;;;;;;2.42;2.22;;;19.90;99.90;;;;;;5008850;28;20121;-47
2023/09/01 11:09:32;;;;;;;4.20;2.47;;;19.80;99.90;;;;;;4987098;28;20038;-50
2023/09/01 11:11:58;;;;;;;5.20;2.60;;;19.70;99.90;;;;;;5008757;28;20450;-48
2023/09/01 11:14:24;;;;;;;3.63;2.67;;;19.70;99.90;;;;;;5004237;28;20058;-49
2023/09/01 11:16:49;;;;;;;5.53;3.08;;;19.70;99.90;;;;;;4964540;28;20152;-47
2023/09/01 11:19:15;;;;;;;7.47;3.50;;;19.70;99.90;;;;;;5008290;28;20038;-52
2023/09/01 11:21:41;;;;;;;3.47;2.35;;;19.60;99.90;;;;;;4993032;28;20034;-51
2023/09/01 11:24:07;;;;;;;2.10;1.90;;;19.70;99.90;;;;;;5008550;28;20174;-47
2023/09/01 11:26:37;;;;;;;3.38;2.00;;;19.80;99.90;;;;;;4974561;28;20414;-51
2023/09/01 11:29:06;;;;;;;4.13;1.80;;;19.80;99.90;;;;;;4997006;28;20234;-50
2023/09/01 11:31:39;;;;;;;1.73;1.63;;;19.80;99.90;;;;;;4973614;28;20031;-50
2023/09/01 11:34:05;;;;;;;7.57;2.30;;;19.80;99.90;;;;;;4972523;28;20022;-49
2023/09/01 11:36:31;;;;;;;2.35;1.48;;;19.80;99.90;;;;;;4972323;28;20049;-47
2023/09/01 11:38:57;;;;;;;3.10;1.67;;;19.70;99.90;;;;;;4956681;28;20062;-50
2023/09/01 11:41:23;;;;;;;3.28;1.20;;;19.60;99.90;;;;;;4972067;28;20390;-47
2023/09/01 11:43:50;;;;;;;1.70;1.60;;;19.60;99.90;;;;;;4972276;28;20030;-49
2023/09/01 11:46:16;;;;;;;1.95;1.42;;;19.60;99.90;;;;;;4972154;28;20026;-49
2023/09/01 11:48:42;;;;;;;2.78;1.20;;;19.50;99.90;;;;;;4972137;28;20554;-49
2023/09/01 11:51:09;;;;;;;3.72;1.80;;;19.40;99.90;;;;;;4988116;28;20113;-51
2023/09/01 11:53:35;;;;;;;57.80;42.03;;;19.50;99.90;;;;;;4986219;28;20037;-47
2023/09/01 11:56:17;;;;;;;2.38;2.17;;;19.40;99.90;;;;;;4972245;28;20030;-49
2023/09/01 11:58:43;;;;;;;18.25;12.55;;;19.30;99.90;;;;;;4982919;28;20026;-48
2023/09/01 12:01:12;;;;;;;4.30;2.35;;;19.40;99.90;;;;;;4991400;28;20394;-47
2023/09/01 12:03:38;;;;;;;0.80;0.80;;;19.40;99.90;;;;;;5007394;28;20067;-50
2023/09/01 12:06:25;;;;;;;1.20;0.75;;;19.30;99.90;;;;;;4992430;28;20030;-51
2023/09/01 12:08:53;;;;;;;2.17;1.30;;;19.10;99.90;;;;;;4986518;28;20081;-47
2023/09/01 12:11:19;;;;;;;0.85;0.82;;;19.00;99.90;;;;;;4971433;28;20023;-49
2023/09/01 12:13:46;;;;;;;0.90;0.80;;;18.90;99.90;;;;;;4971344;28;20081;-50
2023/09/01 12:16:21;;;;;;;2.13;0.80;;;18.80;99.90;;;;;;4971892;28;20050;-49
2023/09/01 12:18:47;;;;;;;1.00;1.00;;;18.90;99.90;;;;;;4972000;28;20050;-49
2023/09/01 12:21:13;;;;;;;3.95;1.20;;;19.10;99.90;;;;;;4988639;28;20530;-51
2023/09/01 12:23:44;;;;;;;1.23;1.13;;;19.20;99.90;;;;;;4972138;28;20026;-49
2023/09/01 12:26:11;;;;;;;3.38;1.50;;;19.40;99.90;;;;;;4975654;28;20058;-47
2023/09/01 12:28:38;;;;;;;3.78;2.10;;;19.50;99.90;;;;;;4989541;28;20038;-49
2023/09/01 12:31:05;;;;;;;2.25;1.58;;;19.70;99.90;;;;;;5002818;28;20027;-48
2023/09/01 12:33:32;;;;;;;4.05;2.00;;;19.80;99.90;;;;;;4979703;28;20030;-50
2023/09/01 12:35:58;;;;;;;1.30;1.20;;;20.00;99.90;;;;;;5007172;28;20077;-52
2023/09/01 12:38:24;;;;;;;1.70;1.60;;;20.10;99.90;;;;;;5007128;28;20026;-53
2023/09/01 12:40:50;;;;;;;1.63;1.52;;;20.30;99.90;;;;;;5007164;28;20413;-48
2023/09/01 12:43:16;;;;;;;1.55;1.35;;;20.50;99.90;;;;;;5007233;28;20025;-50